Time;durP1;ratioP1;P1;durP2;ratioP2;P2;SDS_P1;SDS_P2;PMS_P1;PMS_P2;Temp;Humidity;BMP_temperature;BMP_pressure;BME280_temperature;BME280_humidity;BME280_pressure;Samples;Min_cycle;Max_cycle;Signal;HPM_P1;HPM_P2
2022/06/20 00:00:48;;;;;;;7.53;2.70;;;15.60;90.70;;;;;;5091758;28;20028;-53
2022/06/20 00:03:24;;;;;;;8.75;2.55;;;15.60;92.90;;;;;;5111281;28;20028;-53
2022/06/20 00:05:50;;;;;;;6.63;2.25;;;15.50;93.90;;;;;;5095140;28;20027;-54
2022/06/20 00:08:16;;;;;;;4.55;2.10;;;15.40;94.40;;;;;;5111171;28;20040;-51
2022/06/20 00:10:43;;;;;;;6.30;2.78;;;15.40;94.60;;;;;;5094246;28;20036;-53
2022/06/20 00:13:34;;;;;;;7.57;2.63;;;15.30;95.70;;;;;;5111143;28;20027;-56
2022/06/20 00:16:01;;;;;;;5.63;2.78;;;15.30;99.30;;;;;;5084112;28;20038;-54
2022/06/20 00:18:28;;;;;;;4.18;2.63;;;15.20;99.90;;;;;;5111283;28;20102;-51
2022/06/20 00:20:54;;;;;;;4.60;3.13;;;15.10;99.90;;;;;;5095632;28;20080;-50
2022/06/20 00:23:19;;;;;;;8.85;2.80;;;15.00;99.90;;;;;;5111020;28;20036;-52
2022/06/20 00:25:45;;;;;;;6.28;3.42;;;15.00;99.90;;;;;;5094703;28;20070;-51
2022/06/20 00:28:12;;;;;;;4.18;2.95;;;15.00;99.90;;;;;;5096487;28;20067;-55
2022/06/20 00:30:38;;;;;;;7.35;3.25;;;15.00;99.90;;;;;;5108232;28;20071;-67
2022/06/20 00:33:04;;;;;;;5.05;2.88;;;15.00;99.90;;;;;;5110725;28;20623;-62
2022/06/20 00:35:31;;;;;;;9.35;4.70;;;15.00;99.90;;;;;;5092617;28;20380;-63
2022/06/20 00:37:58;;;;;;;11.68;4.90;;;15.00;99.90;;;;;;5110696;28;20126;-63
2022/06/20 00:40:39;;;;;;;9.07;4.28;;;14.90;99.90;;;;;;5090198;28;20657;-63
2022/06/20 00:43:09;;;;;;;6.95;3.55;;;14.90;99.90;;;;;;5110689;28;20096;-62
2022/06/20 00:45:41;;;;;;;12.05;5.90;;;15.00;99.90;;;;;;5076492;28;20063;-63
2022/06/20 00:48:13;;;;;;;10.98;4.88;;;14.90;99.90;;;;;;5110232;28;20580;-62
2022/06/20 00:50:38;;;;;;;7.13;4.82;;;14.80;99.90;;;;;;5076560;28;20051;-63
2022/06/20 00:53:17;;;;;;;9.68;4.65;;;14.90;99.90;;;;;;5110323;28;20024;-62
2022/06/20 00:55:51;;;;;;;9.35;4.82;;;14.90;99.90;;;;;;5073004;28;20024;-63
2022/06/20 00:58:26;;;;;;;9.25;4.68;;;14.90;99.90;;;;;;5088406;28;20111;-63
2022/06/20 01:00:52;;;;;;;11.02;5.20;;;15.00;99.90;;;;;;5078102;28;20024;-67
2022/06/20 01:03:20;;;;;;;6.43;3.97;;;15.00;99.90;;;;;;5110077;28;20501;-67
2022/06/20 01:05:58;;;;;;;5.93;3.55;;;15.10;99.90;;;;;;5093771;28;20019;-67
2022/06/20 01:08:27;;;;;;;7.07;3.50;;;15.20;99.90;;;;;;5110130;28;20051;-67
2022/06/20 01:11:05;;;;;;;6.35;3.28;;;15.20;99.90;;;;;;5094496;27;20119;-67
2022/06/20 01:13:31;;;;;;;9.38;3.40;;;15.30;99.90;;;;;;5110012;28;20430;-67
2022/06/20 01:16:13;;;;;;;7.07;3.05;;;15.20;99.90;;;;;;5095316;28;20030;-67
2022/06/20 01:18:40;;;;;;;6.95;2.78;;;15.30;99.90;;;;;;5109843;28;20427;-68
2022/06/20 01:21:12;;;;;;;4.78;2.75;;;15.30;99.90;;;;;;5096581;28;20027;-67
2022/06/20 01:23:58;;;;;;;7.18;2.63;;;15.30;99.90;;;;;;5069334;28;20086;-67
2022/06/20 01:26:47;;;;;;;4.78;2.42;;;15.30;99.90;;;;;;5106875;28;20046;-67
2022/06/20 01:29:13;;;;;;;5.28;3.08;;;15.40;99.90;;;;;;5068815;28;20513;-67
2022/06/20 01:31:43;;;;;;;6.22;2.97;;;15.30;99.90;;;;;;5093214;28;20028;-67
2022/06/20 01:34:10;;;;;;;6.85;3.47;;;15.30;99.90;;;;;;5069037;28;20039;-67
2022/06/20 01:39:23;;;;;;;6.00;3.20;;;15.10;99.90;;;;;;5068868;28;20047;-67
2022/06/20 01:44:40;;;;;;;5.97;3.00;;;15.10;99.90;;;;;;5069216;28;20560;-67
2022/06/20 01:47:05;;;;;;;7.93;3.78;;;15.10;99.90;;;;;;5089831;28;20074;-67
2022/06/20 01:49:33;;;;;;;6.95;3.83;;;15.00;99.90;;;;;;5108305;28;20066;-67
2022/06/20 01:52:07;;;;;;;8.60;3.95;;;14.90;99.90;;;;;;5087442;28;20024;-67
2022/06/20 01:54:38;;;;;;;7.03;3.83;;;14.90;99.90;;;;;;5068833;28;20090;-67
2022/06/20 01:57:07;;;;;;;11.63;4.57;;;14.90;99.90;;;;;;5083691;28;20399;-67
2022/06/20 01:59:41;;;;;;;5.28;3.20;;;14.90;99.90;;;;;;5106199;28;20034;-54
2022/06/20 02:02:07;;;;;;;5.18;3.55;;;14.90;99.90;;;;;;5086009;28;20036;-66
2022/06/20 02:04:36;;;;;;;4.93;3.40;;;14.90;99.90;;;;;;5108265;28;20387;-68
2022/06/20 02:07:06;;;;;;;5.50;3.38;;;15.00;99.90;;;;;;5087110;28;20024;-67
2022/06/20 02:09:32;;;;;;;7.35;3.60;;;15.00;99.90;;;;;;5068569;28;20112;-67
2022/06/20 02:11:59;;;;;;;7.47;3.95;;;15.00;99.90;;;;;;5089685;28;20103;-68
2022/06/20 02:14:49;;;;;;;6.32;3.45;;;15.00;99.90;;;;;;5108549;28;20083;-67
2022/06/20 02:17:21;;;;;;;6.78;3.75;;;15.00;99.90;;;;;;5084847;28;20039;-67
2022/06/20 02:19:51;;;;;;;8.38;5.15;;;15.00;99.90;;;;;;5068614;28;20452;-68
2022/06/20 02:22:20;;;;;;;10.73;5.10;;;15.00;99.90;;;;;;5085151;28;20038;-67
2022/06/20 02:24:50;;;;;;;9.77;4.95;;;14.90;99.90;;;;;;5108611;28;20612;-67
2022/06/20 02:27:26;;;;;;;9.95;4.82;;;14.90;99.90;;;;;;5090937;28;20048;-67
2022/06/20 02:29:52;;;;;;;11.20;5.57;;;14.80;99.90;;;;;;5108876;28;20027;-68
2022/06/20 02:32:23;;;;;;;7.82;4.68;;;14.70;99.90;;;;;;5086814;28;20032;-68
2022/06/20 02:34:49;;;;;;;9.25;4.65;;;14.70;99.90;;;;;;5068374;28;20077;-68
2022/06/20 02:37:23;;;;;;;10.02;5.32;;;14.70;99.90;;;;;;5087340;28;20052;-68
2022/06/20 02:39:50;;;;;;;6.65;4.07;;;14.70;99.90;;;;;;5068147;28;20032;-68
2022/06/20 02:42:37;;;;;;;9.15;5.07;;;14.70;99.90;;;;;;5086008;28;20424;-68
2022/06/20 02:45:06;;;;;;;10.52;5.32;;;14.70;99.90;;;;;;5068078;28;20219;-66
2022/06/20 02:47:33;;;;;;;9.10;5.00;;;14.70;99.90;;;;;;5068051;28;20485;-65
2022/06/20 02:50:02;;;;;;;7.95;4.53;;;14.70;99.90;;;;;;5107524;28;20035;-66
2022/06/20 02:52:37;;;;;;;10.77;4.90;;;14.60;99.90;;;;;;5106426;28;20032;-66
2022/06/20 02:55:05;;;;;;;11.23;5.40;;;14.60;99.90;;;;;;5067950;28;20044;-63
2022/06/20 02:57:35;;;;;;;7.07;4.53;;;14.50;99.90;;;;;;5088143;28;20047;-66
2022/06/20 03:00:02;;;;;;;9.85;4.28;;;14.50;99.90;;;;;;5073508;28;20441;-67
2022/06/20 03:02:33;;;;;;;6.50;4.07;;;14.50;99.90;;;;;;5086382;28;20108;-66
2022/06/20 03:05:01;;;;;;;10.77;5.25;;;14.60;99.90;;;;;;5067901;28;20037;-66
2022/06/20 03:07:30;;;;;;;10.18;5.22;;;14.60;99.90;;;;;;5105619;28;20023;-66
2022/06/20 03:10:02;;;;;;;13.43;5.50;;;14.50;99.90;;;;;;5088168;28;20028;-66
2022/06/20 03:12:27;;;;;;;8.25;4.85;;;14.40;99.90;;;;;;5086897;28;20115;-66
2022/06/20 03:14:58;;;;;;;9.90;5.15;;;14.40;99.90;;;;;;5111327;28;20111;-66
2022/06/20 03:17:24;;;;;;;8.55;4.70;;;14.40;99.90;;;;;;5089106;28;20040;-66
2022/06/20 03:20:00;;;;;;;8.77;4.30;;;14.30;99.90;;;;;;5111488;28;20118;-66
2022/06/20 03:22:33;;;;;;;11.45;3.90;;;14.30;99.90;;;;;;5089854;28;20500;-66
2022/06/20 03:24:59;;;;;;;11.00;4.22;;;14.40;99.90;;;;;;5071385;28;20037;-66
2022/06/20 03:27:29;;;;;;;6.50;3.22;;;14.50;99.90;;;;;;5102489;28;20052;-66
2022/06/20 03:30:00;;;;;;;6.75;3.88;;;14.60;99.90;;;;;;5091340;28;20024;-66
2022/06/20 03:32:26;;;;;;;6.70;3.67;;;14.70;99.90;;;;;;5088919;28;20070;-66
2022/06/20 03:34:53;;;;;;;8.65;3.63;;;14.70;99.90;;;;;;5111219;28;20043;-66
2022/06/20 03:37:19;;;;;;;9.65;3.85;;;14.80;99.90;;;;;;5089778;28;20074;-66
2022/06/20 03:39:47;;;;;;;9.73;4.30;;;14.80;99.90;;;;;;5090743;28;20032;-66
2022/06/20 03:42:14;;;;;;;9.10;4.55;;;14.70;99.90;;;;;;5110815;28;20247;-66
2022/06/20 03:44:45;;;;;;;7.60;4.25;;;14.70;99.90;;;;;;5089522;28;20036;-66
2022/06/20 03:47:30;;;;;;;8.45;5.10;;;14.70;99.90;;;;;;5070757;28;20020;-67
2022/06/20 03:50:13;;;;;;;8.00;4.40;;;14.60;99.90;;;;;;5088679;28;20027;-67
2022/06/20 03:53:10;;;;;;;9.05;4.30;;;14.60;99.90;;;;;;5070084;28;20552;-66
2022/06/20 03:55:48;;;;;;;10.38;4.95;;;14.70;99.90;;;;;;5111333;28;20038;-66
2022/06/20 03:58:21;;;;;;;10.93;5.03;;;14.70;99.90;;;;;;5079755;28;20040;-66
2022/06/20 04:00:56;;;;;;;9.13;4.35;;;14.60;99.90;;;;;;5092420;28;20020;-67
2022/06/20 04:03:41;;;;;;;9.45;4.10;;;14.60;99.90;;;;;;5080560;28;20032;-67
2022/06/20 04:06:12;;;;;;;7.15;4.13;;;14.60;99.90;;;;;;5070543;28;20082;-66
2022/06/20 04:12:02;;;;;;;11.52;4.55;;;14.80;99.90;;;;;;5070326;28;20090;-66
2022/06/20 04:14:38;;;;;;;9.30;4.88;;;14.80;99.90;;;;;;5111108;27;20023;-66
2022/06/20 04:20:06;;;;;;;6.93;4.45;;;14.80;99.90;;;;;;5111043;28;20072;-66
2022/06/20 04:22:37;;;;;;;7.25;3.63;;;14.80;99.90;;;;;;5093773;28;20539;-66
2022/06/20 04:25:37;;;;;;;9.93;4.38;;;14.90;99.90;;;;;;5110040;28;20024;-66
2022/06/20 04:28:27;;;;;;;5.07;3.85;;;15.00;99.90;;;;;;5091027;28;20109;-65
2022/06/20 04:30:55;;;;;;;11.63;4.05;;;15.20;99.90;;;;;;5070368;28;20098;-66
2022/06/20 04:33:38;;;;;;;7.45;3.97;;;15.40;99.90;;;;;;5094292;28;20024;-66
2022/06/20 04:36:17;;;;;;;7.75;4.60;;;15.50;99.90;;;;;;5070260;28;20400;-65
2022/06/20 04:38:56;;;;;;;8.77;4.40;;;15.50;99.90;;;;;;5084955;28;20032;-66
2022/06/20 04:42:02;;;;;;;7.40;3.92;;;15.50;99.90;;;;;;5070161;28;20056;-67
2022/06/20 04:44:36;;;;;;;8.35;4.85;;;16.00;99.90;;;;;;4988058;28;20028;-66
2022/06/20 04:47:37;;;;;;;6.00;3.40;;;16.60;99.90;;;;;;4986282;28;20792;-66
2022/06/20 04:50:05;;;;;;;8.45;4.53;;;17.00;99.90;;;;;;5056635;28;20653;-66
2022/06/20 04:52:31;;;;;;;5.88;3.97;;;16.90;97.10;;;;;;5101094;28;20047;-66
2022/06/20 04:54:57;;;;;;;7.15;3.83;;;16.80;99.50;;;;;;5089608;28;20024;-66
2022/06/20 04:57:26;;;;;;;8.13;4.65;;;16.50;97.80;;;;;;5107063;28;20084;-67
2022/06/20 04:59:56;;;;;;;6.38;4.35;;;16.40;99.70;;;;;;5102016;28;20020;-68
2022/06/20 05:02:22;;;;;;;8.23;4.15;;;16.30;99.30;;;;;;5093369;28;20514;-67
2022/06/20 05:04:51;;;;;;;6.15;3.63;;;16.10;99.80;;;;;;5109920;28;20042;-67
2022/06/20 05:07:24;;;;;;;9.27;4.82;;;16.20;99.90;;;;;;5092494;28;20030;-67
2022/06/20 05:10:03;;;;;;;10.65;3.78;;;16.20;99.70;;;;;;5110026;28;20114;-62
2022/06/20 05:12:41;;;;;;;6.70;3.53;;;16.00;99.90;;;;;;5086688;28;20039;-62
2022/06/20 05:15:38;;;;;;;6.43;3.53;;;15.80;99.90;;;;;;5090308;28;20028;-62
2022/06/20 05:18:40;;;;;;;5.32;2.90;;;15.70;99.90;;;;;;5094063;28;20027;-62
2022/06/20 05:21:21;;;;;;;5.53;3.00;;;15.80;99.90;;;;;;5067005;28;20044;-62
2022/06/20 05:23:51;;;;;;;5.07;2.70;;;15.90;99.90;;;;;;5084365;28;20031;-66
2022/06/20 05:26:23;;;;;;;3.05;1.92;;;15.90;99.90;;;;;;5101297;28;20024;-66
2022/06/20 05:28:50;;;;;;;6.75;3.13;;;15.90;99.90;;;;;;5085858;28;20068;-67
2022/06/20 05:31:22;;;;;;;8.05;3.10;;;15.90;99.90;;;;;;5107693;28;20457;-66
2022/06/20 05:33:56;;;;;;;4.45;2.67;;;15.70;99.90;;;;;;5084101;28;20043;-67
2022/06/20 05:36:28;;;;;;;8.68;3.03;;;15.70;99.90;;;;;;5067451;28;20025;-67
2022/06/20 05:39:37;;;;;;;3.50;2.10;;;15.60;99.90;;;;;;5084853;28;20051;-65
2022/06/20 05:42:03;;;;;;;6.57;2.47;;;15.60;99.90;;;;;;5108493;28;20019;-66
2022/06/20 05:44:29;;;;;;;7.47;2.47;;;15.70;99.90;;;;;;5092717;28;20028;-65
2022/06/20 05:47:03;;;;;;;4.25;2.40;;;15.70;99.90;;;;;;5106886;28;20027;-66
2022/06/20 05:49:35;;;;;;;5.22;2.05;;;15.70;99.90;;;;;;5079283;28;20024;-65
2022/06/20 05:52:05;;;;;;;5.22;2.58;;;15.60;99.90;;;;;;5108172;28;20052;-66
2022/06/20 05:54:51;;;;;;;7.07;2.90;;;15.50;99.90;;;;;;5079782;28;20060;-66
2022/06/20 05:57:20;;;;;;;5.30;2.77;;;15.50;99.90;;;;;;5107884;28;20034;-65
2022/06/20 06:00:00;;;;;;;3.85;2.60;;;15.50;99.90;;;;;;5090035;28;20282;-62
2022/06/20 06:02:42;;;;;;;5.00;2.83;;;15.40;99.90;;;;;;5067604;28;20078;-62
2022/06/20 06:05:26;;;;;;;6.68;2.50;;;15.30;99.90;;;;;;5077686;28;20052;-62
2022/06/20 06:08:03;;;;;;;6.57;2.40;;;15.30;99.90;;;;;;5067292;28;20116;-62
2022/06/20 06:10:34;;;;;;;6.93;2.80;;;15.20;99.90;;;;;;5080517;28;20031;-62
2022/06/20 06:13:33;;;;;;;3.08;2.05;;;15.20;99.90;;;;;;5107481;28;20114;-62
2022/06/20 06:19:03;;;;;;;4.68;2.22;;;15.20;99.90;;;;;;5067225;28;20515;-62
2022/06/20 06:21:29;;;;;;;7.25;2.65;;;15.10;99.90;;;;;;5107727;28;20431;-62
2022/06/20 06:23:57;;;;;;;5.55;2.28;;;15.00;99.90;;;;;;5087845;28;20032;-63
2022/06/20 06:26:23;;;;;;;6.72;2.47;;;15.00;99.90;;;;;;5107750;28;20158;-63
2022/06/20 06:28:50;;;;;;;11.70;4.15;;;15.00;99.90;;;;;;5086958;28;20127;-62
2022/06/20 06:31:23;;;;;;;15.57;5.18;;;14.70;99.90;;;;;;5107339;28;20043;-67
2022/06/20 06:34:05;;;;;;;11.90;4.97;;;14.20;99.90;;;;;;5067343;28;20093;-70
2022/06/20 06:36:46;;;;;;;17.48;5.07;;;13.80;99.90;;;;;;5107746;28;20027;-56
2022/06/20 06:39:25;;;;;;;8.93;4.55;;;13.60;99.90;;;;;;5073548;28;20498;-56
2022/06/20 06:41:56;;;;;;;9.75;5.30;;;13.40;99.90;;;;;;5107710;28;20028;-61
2022/06/20 06:44:36;;;;;;;10.20;5.22;;;13.40;99.90;;;;;;5076256;28;20024;-61
2022/06/20 06:47:03;;;;;;;12.20;5.50;;;13.30;99.90;;;;;;5107502;28;20031;-60
2022/06/20 06:49:45;;;;;;;13.88;5.65;;;13.30;99.90;;;;;;5096457;28;20468;-60
2022/06/20 06:52:25;;;;;;;14.02;5.65;;;13.20;99.90;;;;;;5090896;28;20035;-60
2022/06/20 06:55:01;;;;;;;14.15;5.60;;;13.20;99.90;;;;;;5088683;28;20054;-60
2022/06/20 06:57:35;;;;;;;14.55;5.30;;;13.10;99.90;;;;;;5070675;28;20059;-60
2022/06/20 07:00:03;;;;;;;11.68;6.00;;;13.20;99.90;;;;;;5090794;28;20035;-60
2022/06/20 07:02:33;;;;;;;10.45;5.03;;;13.30;99.90;;;;;;5091499;28;20024;-60
2022/06/20 07:05:14;;;;;;;9.95;5.03;;;13.40;99.90;;;;;;5090523;28;20028;-60
2022/06/20 07:07:57;;;;;;;9.55;4.63;;;13.40;99.90;;;;;;5070633;28;20029;-60
2022/06/20 07:10:31;;;;;;;9.43;5.20;;;13.50;99.90;;;;;;5082786;28;20027;-60
2022/06/20 07:13:13;;;;;;;10.32;5.55;;;13.70;99.90;;;;;;5089665;28;20047;-59
2022/06/20 07:15:39;;;;;;;16.48;6.70;;;13.80;99.90;;;;;;5085019;28;20024;-60
2022/06/20 07:18:18;;;;;;;13.93;7.57;;;13.80;99.90;;;;;;5109137;28;20069;-60
2022/06/20 07:20:44;;;;;;;12.38;7.22;;;13.80;99.90;;;;;;5085411;28;20111;-60
2022/06/20 07:23:13;;;;;;;10.18;6.93;;;13.90;99.90;;;;;;5110225;28;20123;-60
2022/06/20 07:25:46;;;;;;;11.95;7.93;;;14.00;99.90;;;;;;5088683;28;20024;-60
2022/06/20 07:28:34;;;;;;;13.45;7.97;;;14.10;99.90;;;;;;5100547;28;20063;-59
2022/06/20 07:31:07;;;;;;;13.30;8.02;;;14.20;99.90;;;;;;5087740;28;20032;-59
2022/06/20 07:33:42;;;;;;;13.90;9.25;;;14.30;99.90;;;;;;5093645;28;20051;-60
2022/06/20 07:36:10;;;;;;;11.15;8.30;;;14.30;99.90;;;;;;5110511;28;20020;-60
2022/06/20 07:38:42;;;;;;;13.57;8.63;;;14.20;99.90;;;;;;5094484;28;20058;-60
2022/06/20 07:41:21;;;;;;;11.88;7.55;;;14.10;99.90;;;;;;5088932;28;20053;-60
2022/06/20 07:44:00;;;;;;;16.02;9.23;;;14.10;99.90;;;;;;5083205;28;20114;-59
2022/06/20 07:46:39;;;;;;;13.70;9.38;;;14.10;99.90;;;;;;5069474;28;20610;-59
2022/06/20 07:49:11;;;;;;;17.27;10.02;;;14.10;99.90;;;;;;5088087;28;20020;-60
2022/06/20 07:51:40;;;;;;;13.82;10.25;;;13.90;99.90;;;;;;5079165;28;20032;-60
2022/06/20 07:54:20;;;;;;;15.82;10.65;;;13.90;99.90;;;;;;5098177;28;20044;-59
2022/06/20 07:56:50;;;;;;;14.13;9.48;;;14.00;99.90;;;;;;5069513;28;20029;-59
2022/06/20 07:59:23;;;;;;;15.25;10.63;;;14.10;99.90;;;;;;5107445;28;20031;-60
2022/06/20 08:02:19;;;;;;;16.30;9.75;;;14.20;99.90;;;;;;5066306;28;20112;-60
2022/06/20 08:04:46;;;;;;;12.63;8.60;;;14.30;99.90;;;;;;5062720;28;20402;-60
2022/06/20 08:07:24;;;;;;;12.05;8.55;;;14.40;99.90;;;;;;5106647;28;20038;-60
2022/06/20 08:09:52;;;;;;;13.93;9.85;;;14.50;99.90;;;;;;5083781;28;20028;-60
2022/06/20 08:12:29;;;;;;;12.55;8.70;;;14.50;99.90;;;;;;5109159;28;20031;-60
2022/06/20 08:15:05;;;;;;;13.77;9.10;;;14.60;99.90;;;;;;5084239;28;20134;-60
2022/06/20 08:17:32;;;;;;;13.77;9.32;;;14.70;99.90;;;;;;5069358;28;20111;-60
2022/06/20 08:19:59;;;;;;;15.07;9.52;;;14.80;99.90;;;;;;5089219;28;20051;-60
2022/06/20 08:22:33;;;;;;;16.73;9.90;;;14.80;99.90;;;;;;5108914;28;20038;-60
2022/06/20 08:25:24;;;;;;;12.75;9.20;;;14.90;99.90;;;;;;5085453;28;20032;-59
2022/06/20 08:28:11;;;;;;;10.80;8.50;;;15.00;99.90;;;;;;5075922;28;20040;-60
2022/06/20 08:30:56;;;;;;;14.35;9.43;;;15.00;99.90;;;;;;5108368;28;20023;-59
2022/06/20 08:33:39;;;;;;;15.88;9.27;;;15.10;99.90;;;;;;5075196;28;20034;-60
2022/06/20 08:36:29;;;;;;;14.20;9.82;;;15.20;99.90;;;;;;5108449;28;20110;-59
2022/06/20 08:39:07;;;;;;;11.50;9.23;;;15.20;99.90;;;;;;5080741;28;20030;-59
2022/06/20 08:41:49;;;;;;;15.07;10.27;;;15.20;99.90;;;;;;5106772;28;20026;-60
2022/06/20 08:44:40;;;;;;;16.55;11.13;;;15.20;99.90;;;;;;5082021;28;20501;-60
2022/06/20 08:47:43;;;;;;;16.63;12.13;;;15.20;99.90;;;;;;5089606;28;20448;-59
2022/06/20 08:50:45;;;;;;;14.02;10.98;;;15.10;99.90;;;;;;5089644;28;20046;-59
2022/06/20 08:53:29;;;;;;;14.25;12.10;;;15.20;99.90;;;;;;5068540;28;20058;-59
2022/06/20 08:56:30;;;;;;;14.90;11.43;;;15.30;99.90;;;;;;5087524;28;20406;-59
2022/06/20 08:59:28;;;;;;;13.38;10.27;;;15.50;99.90;;;;;;5108945;28;20027;-59
2022/06/20 09:02:05;;;;;;;12.50;9.75;;;15.60;99.90;;;;;;5061255;28;20044;-59
2022/06/20 09:04:49;;;;;;;16.15;10.50;;;15.60;99.90;;;;;;5068142;28;20028;-60
2022/06/20 09:08:16;;;;;;;13.75;10.30;;;15.60;99.90;;;;;;5093033;28;20069;-59
2022/06/20 09:10:50;;;;;;;13.10;9.63;;;15.60;99.90;;;;;;5019050;28;20217;-72
2022/06/20 09:13:56;;;;;;;13.07;10.25;;;15.70;99.90;;;;;;5005794;28;20040;-72
2022/06/20 09:16:44;;;;;;;11.43;8.75;;;15.70;99.90;;;;;;5088549;28;20081;-72
2022/06/20 09:19:31;;;;;;;13.10;9.30;;;15.90;99.90;;;;;;5108506;28;20015;-71
2022/06/20 09:22:28;;;;;;;11.48;9.82;;;15.90;99.90;;;;;;5087129;28;20772;-72
2022/06/20 09:25:07;;;;;;;14.23;9.35;;;15.90;99.90;;;;;;5067921;28;20119;-72
2022/06/20 09:28:00;;;;;;;11.30;9.32;;;15.90;99.90;;;;;;5086475;28;20122;-72
2022/06/20 09:30:58;;;;;;;9.90;8.43;;;15.90;99.90;;;;;;5108474;28;20024;-71
2022/06/20 09:33:39;;;;;;;10.85;8.77;;;16.00;99.90;;;;;;5108442;28;20035;-71
2022/06/20 09:36:40;;;;;;;11.63;9.70;;;16.10;99.90;;;;;;5088905;28;20444;-70
2022/06/20 09:39:31;;;;;;;10.43;9.32;;;16.00;99.90;;;;;;5106357;28;20028;-70
2022/06/20 09:42:00;;;;;;;11.10;8.63;;;15.90;99.90;;;;;;5108560;28;20829;-70
2022/06/20 09:45:04;;;;;;;14.77;8.95;;;15.90;99.90;;;;;;5092333;28;20530;-72
2022/06/20 09:48:01;;;;;;;11.43;9.18;;;15.90;99.90;;;;;;5066158;28;20027;-71
2022/06/20 09:50:38;;;;;;;10.45;8.73;;;15.90;99.90;;;;;;5086953;28;20036;-70
2022/06/20 09:53:32;;;;;;;10.77;8.82;;;15.90;99.90;;;;;;5067968;28;20039;-70
2022/06/20 09:56:09;;;;;;;12.27;9.38;;;16.00;99.90;;;;;;5085889;28;20032;-71
2022/06/20 09:58:50;;;;;;;14.25;9.23;;;16.00;99.90;;;;;;5066337;28;20029;-69
2022/06/20 10:01:40;;;;;;;10.95;9.48;;;16.10;99.90;;;;;;5064004;28;20051;-70
2022/06/20 10:04:27;;;;;;;10.50;9.35;;;16.20;99.90;;;;;;5072696;28;20492;-69
2022/06/20 10:07:02;;;;;;;9.85;8.85;;;16.30;99.90;;;;;;5107945;28;20475;-69
2022/06/20 10:09:37;;;;;;;9.68;8.48;;;16.40;99.90;;;;;;5078801;28;20081;-68
2022/06/20 10:12:45;;;;;;;13.35;10.45;;;16.50;99.90;;;;;;5104293;28;20115;-68
2022/06/20 10:15:39;;;;;;;11.85;9.77;;;16.60;99.90;;;;;;5067361;28;20099;-67
2022/06/20 10:18:14;;;;;;;12.02;9.77;;;16.70;99.90;;;;;;5084864;28;20025;-67
2022/06/20 10:21:04;;;;;;;11.35;9.93;;;16.70;99.90;;;;;;5072532;28;20052;-67
2022/06/20 10:23:41;;;;;;;12.10;9.68;;;16.70;99.90;;;;;;5089822;28;20150;-67
2022/06/20 10:26:38;;;;;;;14.35;10.05;;;16.80;99.90;;;;;;5075144;28;20084;-66
2022/06/20 10:29:23;;;;;;;13.57;10.95;;;16.80;99.90;;;;;;5112165;28;20085;-67
2022/06/20 10:32:20;;;;;;;12.52;9.98;;;16.80;99.90;;;;;;5085307;28;20043;-66
2022/06/20 10:35:08;;;;;;;11.73;9.93;;;16.90;99.90;;;;;;5066849;28;20040;-66
2022/06/20 10:38:00;;;;;;;12.20;10.05;;;16.90;99.90;;;;;;5084382;28;20298;-67
2022/06/20 10:40:33;;;;;;;13.15;9.57;;;17.00;99.90;;;;;;5083977;28;20052;-66
2022/06/20 10:43:04;;;;;;;11.35;9.90;;;17.10;99.90;;;;;;5071442;28;20610;-66
2022/06/20 10:45:59;;;;;;;13.88;11.68;;;17.00;99.90;;;;;;5084010;28;20028;-65
2022/06/20 10:48:50;;;;;;;15.13;12.00;;;16.90;99.90;;;;;;5090805;28;20028;-66
2022/06/20 10:51:30;;;;;;;10.82;9.23;;;16.90;99.90;;;;;;5070867;28;20130;-66
2022/06/20 10:54:16;;;;;;;10.40;8.75;;;16.90;99.90;;;;;;5072890;28;20051;-63
2022/06/20 10:57:04;;;;;;;13.95;9.13;;;16.90;99.90;;;;;;5089374;28;20036;-65
2022/06/20 10:59:50;;;;;;;11.55;8.80;;;16.90;99.90;;;;;;5071157;28;20176;-64
2022/06/20 11:02:41;;;;;;;8.77;7.88;;;16.90;99.90;;;;;;5091992;28;20286;-64
2022/06/20 11:05:25;;;;;;;10.85;8.10;;;16.90;99.90;;;;;;5083079;28;20036;-64
2022/06/20 11:08:12;;;;;;;8.93;7.20;;;16.90;99.90;;;;;;5071695;28;20029;-64
2022/06/20 11:11:01;;;;;;;9.35;6.43;;;16.90;99.90;;;;;;5091468;28;20031;-64
2022/06/20 11:13:41;;;;;;;7.05;6.15;;;16.90;99.90;;;;;;5071436;28;20067;-64
2022/06/20 11:16:15;;;;;;;8.23;6.07;;;17.00;99.90;;;;;;5084629;28;20081;-63
2022/06/20 11:18:48;;;;;;;6.82;4.40;;;17.00;99.90;;;;;;5071750;28;20115;-64
2022/06/20 11:21:34;;;;;;;8.10;5.10;;;17.00;99.90;;;;;;5085535;28;20168;-63
2022/06/20 11:24:18;;;;;;;5.05;4.32;;;17.10;99.90;;;;;;5071540;28;20028;-63
2022/06/20 11:27:05;;;;;;;5.65;4.20;;;17.00;99.90;;;;;;5109142;28;20061;-63
2022/06/20 11:30:06;;;;;;;4.80;4.07;;;16.90;99.90;;;;;;5071902;28;20577;-63
2022/06/20 11:33:01;;;;;;;6.50;4.50;;;16.90;99.90;;;;;;5110506;28;20040;-63
2022/06/20 11:35:41;;;;;;;6.03;4.28;;;16.90;99.90;;;;;;5059505;28;20044;-63
2022/06/20 11:38:26;;;;;;;6.28;4.75;;;16.80;99.90;;;;;;5070977;28;20073;-63
2022/06/20 11:41:16;;;;;;;6.38;4.43;;;16.80;99.90;;;;;;5095354;28;20659;-63
2022/06/20 11:44:12;;;;;;;7.40;4.53;;;16.80;99.90;;;;;;5070990;28;20424;-63
2022/06/20 11:46:55;;;;;;;6.65;4.40;;;16.80;99.90;;;;;;5088411;28;20497;-63
2022/06/20 11:49:33;;;;;;;6.20;4.40;;;16.80;99.90;;;;;;5070817;28;20392;-63
2022/06/20 11:52:23;;;;;;;6.22;5.07;;;16.70;99.90;;;;;;5070715;28;20055;-63
2022/06/20 11:55:04;;;;;;;7.88;4.07;;;16.70;99.90;;;;;;5076471;28;20034;-63
2022/06/20 11:57:37;;;;;;;6.30;4.80;;;16.70;99.90;;;;;;5111536;28;20023;-63
2022/06/20 12:00:21;;;;;;;7.60;4.85;;;16.80;99.90;;;;;;5071955;28;20028;-63
2022/06/20 12:03:06;;;;;;;7.88;4.80;;;16.70;99.90;;;;;;5090915;28;20122;-63
2022/06/20 12:05:41;;;;;;;8.27;5.50;;;16.80;99.90;;;;;;5088369;28;20035;-63
2022/06/20 12:08:23;;;;;;;6.22;4.88;;;16.80;99.90;;;;;;5070367;28;20039;-62
2022/06/20 12:11:17;;;;;;;6.40;4.95;;;16.90;99.90;;;;;;5081005;28;20028;-63
2022/06/20 12:14:06;;;;;;;5.47;4.43;;;16.90;99.90;;;;;;5059406;28;20398;-63
2022/06/20 12:17:05;;;;;;;6.15;4.30;;;17.00;99.90;;;;;;5086691;28;20101;-62
2022/06/20 12:25:46;;;;;;;5.57;3.90;;;17.20;99.90;;;;;;5085047;28;20128;-63
2022/06/20 12:28:22;;;;;;;8.75;4.07;;;17.20;99.90;;;;;;5090338;28;20104;-63
2022/06/20 12:30:59;;;;;;;;;;;17.20;99.90;;;;;;5092512;28;20051;-63
2022/06/20 12:33:25;;;;;;;;;;;17.20;99.90;;;;;;5070611;28;20307;-63
2022/06/20 12:35:58;;;;;;;3.78;3.03;;;17.20;99.90;;;;;;5094786;28;20435;-63
2022/06/20 12:38:35;;;;;;;3.40;3.03;;;17.20;99.90;;;;;;5069799;28;20295;-63
2022/06/20 12:41:08;;;;;;;3.20;2.63;;;17.30;99.90;;;;;;5082025;28;20107;-64
2022/06/20 12:43:51;;;;;;;5.22;2.95;;;17.30;99.90;;;;;;5069762;28;20020;-64
2022/06/20 12:46:23;;;;;;;3.42;2.50;;;17.30;99.90;;;;;;5083142;28;20020;-64
2022/06/20 12:49:01;;;;;;;5.53;2.78;;;17.40;99.90;;;;;;5108868;28;20024;-64
2022/06/20 12:51:54;;;;;;;4.07;3.10;;;17.40;99.90;;;;;;5085162;28;20066;-64
2022/06/20 12:54:46;;;;;;;4.10;2.17;;;17.50;99.90;;;;;;5069492;28;20029;-64
2022/06/20 12:57:39;;;;;;;2.63;2.42;;;17.60;99.90;;;;;;5065374;28;20056;-63
2022/06/20 13:00:18;;;;;;;2.50;2.30;;;17.80;99.90;;;;;;5068163;28;20036;-63
2022/06/20 13:03:12;;;;;;;2.75;1.98;;;17.80;99.90;;;;;;5089648;28;20744;-64
2022/06/20 13:05:55;;;;;;;3.33;2.33;;;17.80;99.90;;;;;;5088585;28;20096;-64
2022/06/20 13:08:43;;;;;;;2.42;2.20;;;17.80;99.90;;;;;;5088790;28;20035;-64
2022/06/20 13:11:23;;;;;;;2.53;2.00;;;17.90;99.90;;;;;;5082649;28;20036;-48
2022/06/20 13:14:18;;;;;;;2.58;2.10;;;18.00;99.90;;;;;;5069127;28;20028;-47
2022/06/20 13:17:10;;;;;;;2.35;1.70;;;18.20;99.90;;;;;;5087318;28;20031;-49
2022/06/20 13:19:52;;;;;;;2.08;1.40;;;18.30;99.90;;;;;;5071309;28;20036;-48
2022/06/20 13:23:07;;;;;;;2.63;1.50;;;18.30;99.90;;;;;;5109498;28;20122;-49
2022/06/20 13:25:58;;;;;;;2.80;1.55;;;18.50;99.90;;;;;;5082384;28;20465;-47
2022/06/20 13:28:37;;;;;;;1.60;1.33;;;18.70;99.90;;;;;;5099920;28;20583;-47
2022/06/20 13:31:18;;;;;;;1.65;1.50;;;18.70;99.90;;;;;;5081129;28;20024;-48
2022/06/20 13:34:17;;;;;;;1.67;1.40;;;18.80;99.90;;;;;;5068861;28;20333;-47
2022/06/20 13:36:43;;;;;;;1.85;1.67;;;18.80;99.90;;;;;;5086891;28;20048;-46
2022/06/20 13:39:36;;;;;;;1.98;1.60;;;18.70;99.90;;;;;;5106753;28;20483;-48
2022/06/20 13:42:30;;;;;;;1.40;1.30;;;18.70;99.90;;;;;;5109639;28;20028;-52
2022/06/20 13:45:10;;;;;;;3.08;1.77;;;18.70;99.90;;;;;;5087654;28;20019;-53
2022/06/20 13:48:01;;;;;;;4.10;1.85;;;18.50;99.90;;;;;;5068765;28;20468;-49
2022/06/20 13:50:42;;;;;;;2.42;1.50;;;18.40;99.90;;;;;;5087030;28;20059;-46
2022/06/20 13:53:08;;;;;;;1.60;1.50;;;18.40;99.90;;;;;;5068669;28;20504;-48
2022/06/20 13:55:51;;;;;;;1.50;1.40;;;18.50;99.90;;;;;;5090266;28;20028;-50
2022/06/20 13:58:26;;;;;;;1.67;1.40;;;18.60;99.90;;;;;;5068524;28;20052;-53
2022/06/20 14:01:13;;;;;;;1.75;1.45;;;18.80;99.90;;;;;;5082008;28;20028;-48